sensor_id;sensor_type;location;lat;lon;timestamp;temperature;humidity
15698;DHT22;7949;48.726;9.102;2022-12-18T00:02:06;-10.90;99.90
15698;DHT22;7949;48.726;9.102;2022-12-18T00:04:33;-10.90;99.90
15698;DHT22;7949;48.726;9.102;2022-12-18T00:07:01;-10.90;99.90
15698;DHT22;7949;48.726;9.102;2022-12-18T00:09:28;-10.80;99.90
15698;DHT22;7949;48.726;9.102;2022-12-18T00:11:55;-10.80;99.90
15698;DHT22;7949;48.726;9.102;2022-12-18T00:14:22;-10.60;99.90
15698;DHT22;7949;48.726;9.102;2022-12-18T00:16:49;-10.90;99.90
15698;DHT22;7949;48.726;9.102;2022-12-18T00:19:16;-11.30;99.90
15698;DHT22;7949;48.726;9.102;2022-12-18T00:21:43;-11.00;99.90
15698;DHT22;7949;48.726;9.102;2022-12-18T00:24:12;-10.90;99.90
15698;DHT22;7949;48.726;9.102;2022-12-18T00:26:39;-10.70;99.90
15698;DHT22;7949;48.726;9.102;2022-12-18T00:29:09;-10.90;99.90
15698;DHT22;7949;48.726;9.102;2022-12-18T00:31:37;-9.80;99.90
15698;DHT22;7949;48.726;9.102;2022-12-18T00:34:04;-10.80;99.90
15698;DHT22;7949;48.726;9.102;2022-12-18T00:36:32;-10.60;99.90
15698;DHT22;7949;48.726;9.102;2022-12-18T00:39:02;-11.10;99.90
15698;DHT22;7949;48.726;9.102;2022-12-18T00:41:30;-11.00;99.90
15698;DHT22;7949;48.726;9.102;2022-12-18T00:44:16;-10.90;99.90
15698;DHT22;7949;48.726;9.102;2022-12-18T00:46:43;-11.00;99.90
15698;DHT22;7949;48.726;9.102;2022-12-18T00:49:14;-10.50;99.90
15698;DHT22;7949;48.726;9.102;2022-12-18T00:51:41;-10.80;99.90
15698;DHT22;7949;48.726;9.102;2022-12-18T00:54:08;-10.90;99.90
15698;DHT22;7949;48.726;9.102;2022-12-18T00:56:36;-11.00;99.90
15698;DHT22;7949;48.726;9.102;2022-12-18T00:59:03;-10.80;99.90
15698;DHT22;7949;48.726;9.102;2022-12-18T01:01:30;-11.00;99.90
15698;DHT22;7949;48.726;9.102;2022-12-18T01:03:58;-11.00;99.90
15698;DHT22;7949;48.726;9.102;2022-12-18T01:06:25;-10.90;99.90
15698;DHT22;7949;48.726;9.102;2022-12-18T01:08:52;-10.70;99.90
15698;DHT22;7949;48.726;9.102;2022-12-18T01:11:20;-10.40;99.90
15698;DHT22;7949;48.726;9.102;2022-12-18T01:13:49;-10.90;99.90
15698;DHT22;7949;48.726;9.102;2022-12-18T01:16:17;-10.80;99.90
15698;DHT22;7949;48.726;9.102;2022-12-18T01:18:44;-10.70;99.90
15698;DHT22;7949;48.726;9.102;2022-12-18T01:21:12;-11.10;99.90
15698;DHT22;7949;48.726;9.102;2022-12-18T01:23:39;-10.20;99.90
15698;DHT22;7949;48.726;9.102;2022-12-18T01:26:07;-10.70;99.90
15698;DHT22;7949;48.726;9.102;2022-12-18T01:28:34;-10.80;99.90
15698;DHT22;7949;48.726;9.102;2022-12-18T01:31:13;-10.80;99.90
15698;DHT22;7949;48.726;9.102;2022-12-18T01:33:40;-10.80;99.90
15698;DHT22;7949;48.726;9.102;2022-12-18T01:36:07;-10.60;99.90
15698;DHT22;7949;48.726;9.102;2022-12-18T01:38:34;-10.60;99.90
15698;DHT22;7949;48.726;9.102;2022-12-18T01:41:02;-10.80;99.90
15698;DHT22;7949;48.726;9.102;2022-12-18T01:43:45;-11.10;99.90
15698;DHT22;7949;48.726;9.102;2022-12-18T01:46:13;-10.80;99.90
15698;DHT22;7949;48.726;9.102;2022-12-18T01:48:41;-10.90;99.90
15698;DHT22;7949;48.726;9.102;2022-12-18T01:51:09;-10.90;99.90
15698;DHT22;7949;48.726;9.102;2022-12-18T01:53:39;-10.90;99.90
15698;DHT22;7949;48.726;9.102;2022-12-18T01:56:07;-10.80;99.90
15698;DHT22;7949;48.726;9.102;2022-12-18T01:58:41;-10.80;99.90
15698;DHT22;7949;48.726;9.102;2022-12-18T02:01:10;-10.70;99.90
15698;DHT22;7949;48.726;9.102;2022-12-18T02:03:41;-10.80;99.90
15698;DHT22;7949;48.726;9.102;2022-12-18T02:06:12;-10.70;99.90
15698;DHT22;7949;48.726;9.102;2022-12-18T02:08:45;-10.70;99.90
15698;DHT22;7949;48.726;9.102;2022-12-18T02:11:22;-10.60;99.90
15698;DHT22;7949;48.726;9.102;2022-12-18T02:13:55;-10.50;99.90
15698;DHT22;7949;48.726;9.102;2022-12-18T02:16:29;-10.20;99.90
15698;DHT22;7949;48.726;9.102;2022-12-18T02:19:06;-10.40;99.90
15698;DHT22;7949;48.726;9.102;2022-12-18T02:21:48;-10.40;99.90
15698;DHT22;7949;48.726;9.102;2022-12-18T02:24:28;-10.40;99.90
15698;DHT22;7949;48.726;9.102;2022-12-18T02:26:59;-10.40;99.90
15698;DHT22;7949;48.726;9.102;2022-12-18T02:29:31;-10.50;99.90
15698;DHT22;7949;48.726;9.102;2022-12-18T02:32:00;-10.30;99.90
15698;DHT22;7949;48.726;9.102;2022-12-18T02:34:32;-10.30;99.90
15698;DHT22;7949;48.726;9.102;2022-12-18T02:37:03;-10.20;99.90
15698;DHT22;7949;48.726;9.102;2022-12-18T02:39:33;-10.20;99.90
15698;DHT22;7949;48.726;9.102;2022-12-18T02:42:02;-10.10;99.90
15698;DHT22;7949;48.726;9.102;2022-12-18T02:44:33;-9.30;99.90
15698;DHT22;7949;48.726;9.102;2022-12-18T02:47:00;-10.10;99.90
15698;DHT22;7949;48.726;9.102;2022-12-18T02:49:32;-9.50;99.90
15698;DHT22;7949;48.726;9.102;2022-12-18T02:52:07;-9.50;99.90
15698;DHT22;7949;48.726;9.102;2022-12-18T02:54:47;-10.50;99.90
15698;DHT22;7949;48.726;9.102;2022-12-18T02:57:21;-10.00;99.90
15698;DHT22;7949;48.726;9.102;2022-12-18T02:59:57;-9.00;99.90
15698;DHT22;7949;48.726;9.102;2022-12-18T03:02:28;-10.00;99.90
15698;DHT22;7949;48.726;9.102;2022-12-18T03:05:01;-10.00;99.90
15698;DHT22;7949;48.726;9.102;2022-12-18T03:07:36;-9.50;99.90
15698;DHT22;7949;48.726;9.102;2022-12-18T03:10:07;-10.10;99.90
15698;DHT22;7949;48.726;9.102;2022-12-18T03:12:39;-9.90;99.90
15698;DHT22;7949;48.726;9.102;2022-12-18T03:15:11;-9.30;99.90
15698;DHT22;7949;48.726;9.102;2022-12-18T03:17:42;-9.70;99.90
15698;DHT22;7949;48.726;9.102;2022-12-18T03:20:14;-9.70;99.90
15698;DHT22;7949;48.726;9.102;2022-12-18T03:22:43;-9.70;99.90
15698;DHT22;7949;48.726;9.102;2022-12-18T03:25:14;-9.70;99.90
15698;DHT22;7949;48.726;9.102;2022-12-18T03:27:48;-9.60;99.90
15698;DHT22;7949;48.726;9.102;2022-12-18T03:30:16;-9.00;99.90
15698;DHT22;7949;48.726;9.102;2022-12-18T03:32:47;-9.70;99.90
15698;DHT22;7949;48.726;9.102;2022-12-18T03:35:18;-9.50;99.90
15698;DHT22;7949;48.726;9.102;2022-12-18T03:37:47;-8.70;99.90
15698;DHT22;7949;48.726;9.102;2022-12-18T03:40:14;-9.60;99.90
15698;DHT22;7949;48.726;9.102;2022-12-18T03:42:46;-9.00;99.90
15698;DHT22;7949;48.726;9.102;2022-12-18T03:45:22;-9.70;99.90
15698;DHT22;7949;48.726;9.102;2022-12-18T03:47:59;-9.60;99.90
15698;DHT22;7949;48.726;9.102;2022-12-18T03:50:36;-9.60;99.90
15698;DHT22;7949;48.726;9.102;2022-12-18T03:53:12;-9.70;99.90
15698;DHT22;7949;48.726;9.102;2022-12-18T03:55:42;-9.70;99.90
15698;DHT22;7949;48.726;9.102;2022-12-18T03:58:13;-9.80;99.90
15698;DHT22;7949;48.726;9.102;2022-12-18T04:00:42;-9.40;99.90
15698;DHT22;7949;48.726;9.102;2022-12-18T04:03:11;-9.90;99.90
15698;DHT22;7949;48.726;9.102;2022-12-18T04:05:38;-9.90;99.90
15698;DHT22;7949;48.726;9.102;2022-12-18T04:08:07;-9.60;99.90
15698;DHT22;7949;48.726;9.102;2022-12-18T04:10:33;-9.40;99.90
15698;DHT22;7949;48.726;9.102;2022-12-18T04:13:00;-9.90;99.90
15698;DHT22;7949;48.726;9.102;2022-12-18T04:15:28;-9.90;99.90
15698;DHT22;7949;48.726;9.102;2022-12-18T04:17:55;-9.60;99.90
15698;DHT22;7949;48.726;9.102;2022-12-18T04:20:22;-9.20;99.90
15698;DHT22;7949;48.726;9.102;2022-12-18T04:22:49;-9.90;99.90
15698;DHT22;7949;48.726;9.102;2022-12-18T04:25:16;-9.90;99.90
15698;DHT22;7949;48.726;9.102;2022-12-18T04:27:42;-9.90;99.90
15698;DHT22;7949;48.726;9.102;2022-12-18T04:30:10;-9.90;99.90
15698;DHT22;7949;48.726;9.102;2022-12-18T04:32:38;-9.80;99.90
15698;DHT22;7949;48.726;9.102;2022-12-18T04:35:05;-9.80;99.90
15698;DHT22;7949;48.726;9.102;2022-12-18T04:37:35;-10.00;99.90
15698;DHT22;7949;48.726;9.102;2022-12-18T04:40:03;-9.60;99.90
15698;DHT22;7949;48.726;9.102;2022-12-18T04:42:30;-9.90;99.90
15698;DHT22;7949;48.726;9.102;2022-12-18T04:44:57;-9.70;99.90
15698;DHT22;7949;48.726;9.102;2022-12-18T04:47:24;-9.80;99.90
15698;DHT22;7949;48.726;9.102;2022-12-18T04:49:52;-9.60;99.90
15698;DHT22;7949;48.726;9.102;2022-12-18T04:52:19;-9.00;99.90
15698;DHT22;7949;48.726;9.102;2022-12-18T04:54:45;-10.10;99.90
15698;DHT22;7949;48.726;9.102;2022-12-18T04:57:12;-9.80;99.90
15698;DHT22;7949;48.726;9.102;2022-12-18T04:59:39;-9.90;99.90
15698;DHT22;7949;48.726;9.102;2022-12-18T05:02:06;-9.90;99.90
15698;DHT22;7949;48.726;9.102;2022-12-18T05:04:32;-9.90;99.90
15698;DHT22;7949;48.726;9.102;2022-12-18T05:07:00;-9.90;99.90
15698;DHT22;7949;48.726;9.102;2022-12-18T05:09:27;-9.90;99.90
15698;DHT22;7949;48.726;9.102;2022-12-18T05:11:54;-9.90;99.90
15698;DHT22;7949;48.726;9.102;2022-12-18T05:14:21;-9.20;99.90
15698;DHT22;7949;48.726;9.102;2022-12-18T05:16:48;-10.10;99.90
15698;DHT22;7949;48.726;9.102;2022-12-18T05:19:15;-10.10;99.90
15698;DHT22;7949;48.726;9.102;2022-12-18T05:21:42;-10.40;99.90
15698;DHT22;7949;48.726;9.102;2022-12-18T05:24:10;-10.10;99.90
15698;DHT22;7949;48.726;9.102;2022-12-18T05:26:37;-10.40;99.90
15698;DHT22;7949;48.726;9.102;2022-12-18T05:29:04;-9.40;99.90
15698;DHT22;7949;48.726;9.102;2022-12-18T05:31:30;-10.00;99.90
15698;DHT22;7949;48.726;9.102;2022-12-18T05:33:58;-9.90;99.90
15698;DHT22;7949;48.726;9.102;2022-12-18T05:36:24;-10.40;99.90
15698;DHT22;7949;48.726;9.102;2022-12-18T05:38:51;-9.90;99.90
15698;DHT22;7949;48.726;9.102;2022-12-18T05:41:19;-9.90;99.90
15698;DHT22;7949;48.726;9.102;2022-12-18T05:43:46;-9.90;99.90
15698;DHT22;7949;48.726;9.102;2022-12-18T05:46:14;-9.90;99.90
15698;DHT22;7949;48.726;9.102;2022-12-18T05:48:43;-9.90;99.90
15698;DHT22;7949;48.726;9.102;2022-12-18T05:51:12;-9.90;99.90
15698;DHT22;7949;48.726;9.102;2022-12-18T05:53:41;-10.00;99.90
15698;DHT22;7949;48.726;9.102;2022-12-18T05:56:11;-10.20;99.90
15698;DHT22;7949;48.726;9.102;2022-12-18T05:58:39;-9.70;99.90
15698;DHT22;7949;48.726;9.102;2022-12-18T06:01:09;-10.00;99.90
15698;DHT22;7949;48.726;9.102;2022-12-18T06:03:36;-10.10;99.90
15698;DHT22;7949;48.726;9.102;2022-12-18T06:06:11;-9.50;99.90
15698;DHT22;7949;48.726;9.102;2022-12-18T06:08:39;-9.60;99.90
15698;DHT22;7949;48.726;9.102;2022-12-18T06:11:05;-9.90;99.90
15698;DHT22;7949;48.726;9.102;2022-12-18T06:13:32;-10.00;99.90
15698;DHT22;7949;48.726;9.102;2022-12-18T06:16:03;-10.10;99.90
15698;DHT22;7949;48.726;9.102;2022-12-18T06:18:30;-9.70;99.90
15698;DHT22;7949;48.726;9.102;2022-12-18T06:20:57;-9.10;99.90
15698;DHT22;7949;48.726;9.102;2022-12-18T06:23:25;-9.70;99.90
15698;DHT22;7949;48.726;9.102;2022-12-18T06:25:52;-10.60;99.90
15698;DHT22;7949;48.726;9.102;2022-12-18T06:28:19;-10.60;99.90
15698;DHT22;7949;48.726;9.102;2022-12-18T06:30:47;-10.50;99.90
15698;DHT22;7949;48.726;9.102;2022-12-18T06:33:16;-9.90;99.90
15698;DHT22;7949;48.726;9.102;2022-12-18T06:35:43;-10.60;99.90
15698;DHT22;7949;48.726;9.102;2022-12-18T06:38:10;-10.60;99.90
15698;DHT22;7949;48.726;9.102;2022-12-18T06:40:37;-10.50;99.90
15698;DHT22;7949;48.726;9.102;2022-12-18T06:43:05;-10.10;99.90
15698;DHT22;7949;48.726;9.102;2022-12-18T06:45:32;-10.90;99.90
15698;DHT22;7949;48.726;9.102;2022-12-18T06:47:59;-10.90;99.90
15698;DHT22;7949;48.726;9.102;2022-12-18T06:50:27;-11.30;99.90
15698;DHT22;7949;48.726;9.102;2022-12-18T06:52:53;-10.50;99.90
15698;DHT22;7949;48.726;9.102;2022-12-18T06:55:20;-10.90;99.90
15698;DHT22;7949;48.726;9.102;2022-12-18T06:57:47;-10.90;99.90
15698;DHT22;7949;48.726;9.102;2022-12-18T07:00:14;-10.80;99.90
15698;DHT22;7949;48.726;9.102;2022-12-18T07:02:41;-10.90;99.90
15698;DHT22;7949;48.726;9.102;2022-12-18T07:05:08;-10.90;99.90
15698;DHT22;7949;48.726;9.102;2022-12-18T07:07:36;-10.40;99.90
15698;DHT22;7949;48.726;9.102;2022-12-18T07:10:04;-10.40;99.90
15698;DHT22;7949;48.726;9.102;2022-12-18T07:12:30;-10.90;99.90
15698;DHT22;7949;48.726;9.102;2022-12-18T07:14:58;-10.80;99.90
15698;DHT22;7949;48.726;9.102;2022-12-18T07:17:24;-10.90;99.90
15698;DHT22;7949;48.726;9.102;2022-12-18T07:19:51;-10.90;99.90
15698;DHT22;7949;48.726;9.102;2022-12-18T07:22:18;-11.40;99.90
15698;DHT22;7949;48.726;9.102;2022-12-18T07:24:46;-10.80;99.90
15698;DHT22;7949;48.726;9.102;2022-12-18T07:27:13;-10.70;99.90
15698;DHT22;7949;48.726;9.102;2022-12-18T07:29:40;-10.60;99.90
15698;DHT22;7949;48.726;9.102;2022-12-18T07:32:06;-10.10;99.90
15698;DHT22;7949;48.726;9.102;2022-12-18T07:34:34;-10.00;99.90
15698;DHT22;7949;48.726;9.102;2022-12-18T07:37:00;-9.50;99.90
15698;DHT22;7949;48.726;9.102;2022-12-18T07:39:27;-9.20;99.90
15698;DHT22;7949;48.726;9.102;2022-12-18T07:41:56;-9.10;99.90
15698;DHT22;7949;48.726;9.102;2022-12-18T07:44:40;-8.80;99.90
15698;DHT22;7949;48.726;9.102;2022-12-18T07:47:06;-8.70;99.90
15698;DHT22;7949;48.726;9.102;2022-12-18T07:49:33;-8.60;99.90
15698;DHT22;7949;48.726;9.102;2022-12-18T07:52:00;-8.50;99.90
15698;DHT22;7949;48.726;9.102;2022-12-18T07:54:27;-8.60;99.90
15698;DHT22;7949;48.726;9.102;2022-12-18T07:56:55;-8.60;99.90
15698;DHT22;7949;48.726;9.102;2022-12-18T07:59:22;-8.50;99.90
15698;DHT22;7949;48.726;9.102;2022-12-18T08:01:49;-8.40;99.90
15698;DHT22;7949;48.726;9.102;2022-12-18T08:04:16;-8.10;99.90
15698;DHT22;7949;48.726;9.102;2022-12-18T08:06:43;-8.40;99.90
15698;DHT22;7949;48.726;9.102;2022-12-18T08:09:10;-7.90;99.90
15698;DHT22;7949;48.726;9.102;2022-12-18T08:11:37;-8.40;99.90
15698;DHT22;7949;48.726;9.102;2022-12-18T08:14:05;-8.40;99.90
15698;DHT22;7949;48.726;9.102;2022-12-18T08:16:32;-8.30;99.90
15698;DHT22;7949;48.726;9.102;2022-12-18T08:18:59;-8.20;99.90
15698;DHT22;7949;48.726;9.102;2022-12-18T08:21:27;-8.30;99.90
15698;DHT22;7949;48.726;9.102;2022-12-18T08:23:56;-8.30;99.90
15698;DHT22;7949;48.726;9.102;2022-12-18T08:26:24;-8.10;99.90
15698;DHT22;7949;48.726;9.102;2022-12-18T08:28:51;-8.00;99.90
15698;DHT22;7949;48.726;9.102;2022-12-18T08:31:21;-8.10;99.90
15698;DHT22;7949;48.726;9.102;2022-12-18T08:33:49;-8.00;99.90
15698;DHT22;7949;48.726;9.102;2022-12-18T08:36:16;-7.80;99.90
15698;DHT22;7949;48.726;9.102;2022-12-18T08:38:43;-7.60;99.90
15698;DHT22;7949;48.726;9.102;2022-12-18T08:41:12;-7.80;99.90
15698;DHT22;7949;48.726;9.102;2022-12-18T08:43:39;-7.60;99.90
15698;DHT22;7949;48.726;9.102;2022-12-18T08:46:26;-7.20;99.90
15698;DHT22;7949;48.726;9.102;2022-12-18T08:48:54;-7.40;99.90
15698;DHT22;7949;48.726;9.102;2022-12-18T08:51:21;-6.10;99.90
15698;DHT22;7949;48.726;9.102;2022-12-18T08:53:48;-7.50;99.90
15698;DHT22;7949;48.726;9.102;2022-12-18T08:56:15;-7.10;99.90
15698;DHT22;7949;48.726;9.102;2022-12-18T08:58:42;-7.10;99.90
15698;DHT22;7949;48.726;9.102;2022-12-18T09:01:11;-7.10;99.90
15698;DHT22;7949;48.726;9.102;2022-12-18T09:03:40;-6.80;99.90
15698;DHT22;7949;48.726;9.102;2022-12-18T09:06:09;-6.90;99.90
15698;DHT22;7949;48.726;9.102;2022-12-18T09:08:36;-6.80;99.90
15698;DHT22;7949;48.726;9.102;2022-12-18T09:11:03;-6.70;99.90
15698;DHT22;7949;48.726;9.102;2022-12-18T09:13:30;-6.70;99.90
15698;DHT22;7949;48.726;9.102;2022-12-18T09:15:57;-6.60;99.90
15698;DHT22;7949;48.726;9.102;2022-12-18T09:18:24;-6.50;99.90
15698;DHT22;7949;48.726;9.102;2022-12-18T09:20:52;-6.40;99.90
15698;DHT22;7949;48.726;9.102;2022-12-18T09:23:20;-6.00;99.90
15698;DHT22;7949;48.726;9.102;2022-12-18T09:25:46;-6.20;99.90
15698;DHT22;7949;48.726;9.102;2022-12-18T09:28:16;-6.20;99.90
15698;DHT22;7949;48.726;9.102;2022-12-18T09:30:45;-6.00;99.90
15698;DHT22;7949;48.726;9.102;2022-12-18T09:33:12;-6.10;99.90
15698;DHT22;7949;48.726;9.102;2022-12-18T09:35:40;-6.10;99.90
15698;DHT22;7949;48.726;9.102;2022-12-18T09:38:12;-6.00;99.90
15698;DHT22;7949;48.726;9.102;2022-12-18T09:40:42;-5.90;99.90
15698;DHT22;7949;48.726;9.102;2022-12-18T09:43:13;-5.90;99.90
15698;DHT22;7949;48.726;9.102;2022-12-18T09:45:44;-5.80;99.90
15698;DHT22;7949;48.726;9.102;2022-12-18T09:48:17;-5.70;99.90
15698;DHT22;7949;48.726;9.102;2022-12-18T09:50:46;-5.60;99.90
15698;DHT22;7949;48.726;9.102;2022-12-18T09:53:18;-5.60;99.90
15698;DHT22;7949;48.726;9.102;2022-12-18T09:55:47;-5.50;99.90
15698;DHT22;7949;48.726;9.102;2022-12-18T09:58:20;-5.40;99.90
15698;DHT22;7949;48.726;9.102;2022-12-18T10:00:51;-5.40;99.90
15698;DHT22;7949;48.726;9.102;2022-12-18T10:03:18;-4.80;99.90
15698;DHT22;7949;48.726;9.102;2022-12-18T10:05:54;-5.30;99.90
15698;DHT22;7949;48.726;9.102;2022-12-18T10:08:32;-5.20;99.90
15698;DHT22;7949;48.726;9.102;2022-12-18T10:11:09;-4.80;99.90
15698;DHT22;7949;48.726;9.102;2022-12-18T10:13:43;-5.10;99.90
15698;DHT22;7949;48.726;9.102;2022-12-18T10:16:14;-5.20;99.90
15698;DHT22;7949;48.726;9.102;2022-12-18T10:19:01;-5.10;99.90
15698;DHT22;7949;48.726;9.102;2022-12-18T10:21:36;-5.00;99.90
15698;DHT22;7949;48.726;9.102;2022-12-18T10:24:17;-4.90;99.90
15698;DHT22;7949;48.726;9.102;2022-12-18T10:26:47;-4.90;99.90
15698;DHT22;7949;48.726;9.102;2022-12-18T10:29:16;-4.80;99.90
15698;DHT22;7949;48.726;9.102;2022-12-18T10:31:43;-4.70;99.90
15698;DHT22;7949;48.726;9.102;2022-12-18T10:34:10;-4.60;99.90
15698;DHT22;7949;48.726;9.102;2022-12-18T10:36:39;-4.40;99.90
15698;DHT22;7949;48.726;9.102;2022-12-18T10:39:16;-4.50;99.90
15698;DHT22;7949;48.726;9.102;2022-12-18T10:41:43;-4.30;99.90
15698;DHT22;7949;48.726;9.102;2022-12-18T10:44:14;-4.00;99.90
15698;DHT22;7949;48.726;9.102;2022-12-18T10:46:42;-3.90;99.90
15698;DHT22;7949;48.726;9.102;2022-12-18T10:49:19;-3.80;99.90
15698;DHT22;7949;48.726;9.102;2022-12-18T10:51:47;-3.70;99.90
15698;DHT22;7949;48.726;9.102;2022-12-18T10:54:17;-3.70;99.90
15698;DHT22;7949;48.726;9.102;2022-12-18T10:56:45;-3.70;99.90
15698;DHT22;7949;48.726;9.102;2022-12-18T10:59:13;-3.60;99.90
15698;DHT22;7949;48.726;9.102;2022-12-18T11:01:49;-3.50;99.90
15698;DHT22;7949;48.726;9.102;2022-12-18T11:04:19;-3.40;99.90
15698;DHT22;7949;48.726;9.102;2022-12-18T11:06:54;-3.30;99.90
15698;DHT22;7949;48.726;9.102;2022-12-18T11:09:23;-3.20;99.90
15698;DHT22;7949;48.726;9.102;2022-12-18T11:11:51;-3.10;99.90
15698;DHT22;7949;48.726;9.102;2022-12-18T11:14:22;-1.10;99.90
15698;DHT22;7949;48.726;9.102;2022-12-18T11:16:50;-2.90;99.90
15698;DHT22;7949;48.726;9.102;2022-12-18T11:19:31;-2.70;99.90
15698;DHT22;7949;48.726;9.102;2022-12-18T11:22:00;-2.50;99.90
15698;DHT22;7949;48.726;9.102;2022-12-18T11:24:31;-2.20;99.90
15698;DHT22;7949;48.726;9.102;2022-12-18T11:27:00;-2.10;99.90
15698;DHT22;7949;48.726;9.102;2022-12-18T11:29:33;-1.70;99.90
15698;DHT22;7949;48.726;9.102;2022-12-18T11:32:21;-1.10;99.90
15698;DHT22;7949;48.726;9.102;2022-12-18T11:34:55;-1.00;99.90
15698;DHT22;7949;48.726;9.102;2022-12-18T11:37:24;-0.80;99.90
15698;DHT22;7949;48.726;9.102;2022-12-18T11:39:56;-0.60;99.90
15698;DHT22;7949;48.726;9.102;2022-12-18T11:42:27;0.00;99.90
15698;DHT22;7949;48.726;9.102;2022-12-18T11:45:00;-0.10;99.90
15698;DHT22;7949;48.726;9.102;2022-12-18T11:47:34;-0.20;99.90
15698;DHT22;7949;48.726;9.102;2022-12-18T11:50:12;-0.20;99.90
15698;DHT22;7949;48.726;9.102;2022-12-18T11:52:40;-0.10;99.90
15698;DHT22;7949;48.726;9.102;2022-12-18T11:55:13;0.00;99.90
15698;DHT22;7949;48.726;9.102;2022-12-18T11:57:46;0.00;99.90
15698;DHT22;7949;48.726;9.102;2022-12-18T12:00:16;0.20;99.90
15698;DHT22;7949;48.726;9.102;2022-12-18T12:03:02;0.20;99.90
15698;DHT22;7949;48.726;9.102;2022-12-18T12:05:44;1.90;99.90
15698;DHT22;7949;48.726;9.102;2022-12-18T12:08:17;0.80;99.90
15698;DHT22;7949;48.726;9.102;2022-12-18T12:10:57;0.20;99.90
15698;DHT22;7949;48.726;9.102;2022-12-18T12:13:34;0.20;99.90
15698;DHT22;7949;48.726;9.102;2022-12-18T12:16:13;0.00;99.90
15698;DHT22;7949;48.726;9.102;2022-12-18T12:18:58;-0.30;99.90
15698;DHT22;7949;48.726;9.102;2022-12-18T12:21:33;-0.40;99.90
15698;DHT22;7949;48.726;9.102;2022-12-18T12:24:11;-0.60;99.90
15698;DHT22;7949;48.726;9.102;2022-12-18T12:26:47;-1.00;99.90
15698;DHT22;7949;48.726;9.102;2022-12-18T12:29:25;-1.40;99.90
15698;DHT22;7949;48.726;9.102;2022-12-18T12:32:05;-1.50;99.90
15698;DHT22;7949;48.726;9.102;2022-12-18T12:34:38;-1.10;99.90
15698;DHT22;7949;48.726;9.102;2022-12-18T12:37:18;-1.60;99.90
15698;DHT22;7949;48.726;9.102;2022-12-18T12:39:47;-1.60;99.90
15698;DHT22;7949;48.726;9.102;2022-12-18T12:42:19;-1.90;99.90
15698;DHT22;7949;48.726;9.102;2022-12-18T12:45:15;-1.70;99.90
15698;DHT22;7949;48.726;9.102;2022-12-18T12:47:44;-1.50;99.90
15698;DHT22;7949;48.726;9.102;2022-12-18T12:50:15;-1.40;99.90
15698;DHT22;7949;48.726;9.102;2022-12-18T12:52:45;-1.20;99.90
15698;DHT22;7949;48.726;9.102;2022-12-18T12:55:17;-1.00;99.90
15698;DHT22;7949;48.726;9.102;2022-12-18T12:57:51;-0.90;99.90
15698;DHT22;7949;48.726;9.102;2022-12-18T13:00:21;-0.60;99.90
15698;DHT22;7949;48.726;9.102;2022-12-18T13:02:53;-0.70;99.90
15698;DHT22;7949;48.726;9.102;2022-12-18T13:05:25;-0.50;99.90
15698;DHT22;7949;48.726;9.102;2022-12-18T13:07:56;-0.50;99.90
15698;DHT22;7949;48.726;9.102;2022-12-18T13:10:33;-0.40;99.90
15698;DHT22;7949;48.726;9.102;2022-12-18T13:13:03;-0.40;99.90
15698;DHT22;7949;48.726;9.102;2022-12-18T13:15:33;-0.10;99.90
15698;DHT22;7949;48.726;9.102;2022-12-18T13:18:19;-0.10;99.90
15698;DHT22;7949;48.726;9.102;2022-12-18T13:20:47;-0.20;99.90
15698;DHT22;7949;48.726;9.102;2022-12-18T13:23:34;-0.30;99.90
15698;DHT22;7949;48.726;9.102;2022-12-18T13:26:29;-0.20;99.90
15698;DHT22;7949;48.726;9.102;2022-12-18T13:28:59;-0.60;99.90
15698;DHT22;7949;48.726;9.102;2022-12-18T13:34:33;-0.90;99.90
15698;DHT22;7949;48.726;9.102;2022-12-18T13:37:40;-0.90;99.90
15698;DHT22;7949;48.726;9.102;2022-12-18T13:43:27;-1.10;99.90
15698;DHT22;7949;48.726;9.102;2022-12-18T13:46:05;-1.20;99.90
15698;DHT22;7949;48.726;9.102;2022-12-18T13:48:33;-1.30;99.90
15698;DHT22;7949;48.726;9.102;2022-12-18T13:51:04;-1.40;99.90
15698;DHT22;7949;48.726;9.102;2022-12-18T13:53:36;-1.40;99.90
15698;DHT22;7949;48.726;9.102;2022-12-18T13:56:04;-1.60;99.90
15698;DHT22;7949;48.726;9.102;2022-12-18T13:58:31;-2.10;99.90
15698;DHT22;7949;48.726;9.102;2022-12-18T14:00:58;-2.00;99.90
15698;DHT22;7949;48.726;9.102;2022-12-18T14:03:29;-2.00;99.90
15698;DHT22;7949;48.726;9.102;2022-12-18T14:06:00;-2.00;99.90
15698;DHT22;7949;48.726;9.102;2022-12-18T14:08:33;-2.00;99.90
15698;DHT22;7949;48.726;9.102;2022-12-18T14:11:03;-2.10;99.90
15698;DHT22;7949;48.726;9.102;2022-12-18T14:13:33;-2.20;99.90
15698;DHT22;7949;48.726;9.102;2022-12-18T14:16:05;-2.20;99.90
15698;DHT22;7949;48.726;9.102;2022-12-18T14:18:41;-2.10;99.90
15698;DHT22;7949;48.726;9.102;2022-12-18T14:21:20;-2.10;99.90
15698;DHT22;7949;48.726;9.102;2022-12-18T14:23:47;-2.10;99.90
15698;DHT22;7949;48.726;9.102;2022-12-18T14:26:23;-2.20;99.90
15698;DHT22;7949;48.726;9.102;2022-12-18T14:28:51;-2.30;99.90
15698;DHT22;7949;48.726;9.102;2022-12-18T14:31:20;-2.50;99.90
15698;DHT22;7949;48.726;9.102;2022-12-18T14:33:48;-2.50;99.90
15698;DHT22;7949;48.726;9.102;2022-12-18T14:36:18;-2.30;99.90
15698;DHT22;7949;48.726;9.102;2022-12-18T14:38:49;-2.50;99.90
15698;DHT22;7949;48.726;9.102;2022-12-18T14:41:17;-2.70;99.90
15698;DHT22;7949;48.726;9.102;2022-12-18T14:43:46;-2.70;99.90
15698;DHT22;7949;48.726;9.102;2022-12-18T14:46:28;-2.70;99.90
15698;DHT22;7949;48.726;9.102;2022-12-18T14:48:57;-2.70;99.90
15698;DHT22;7949;48.726;9.102;2022-12-18T14:51:25;-2.80;99.90
15698;DHT22;7949;48.726;9.102;2022-12-18T14:53:55;-2.80;99.90
15698;DHT22;7949;48.726;9.102;2022-12-18T14:56:23;-2.80;99.90
15698;DHT22;7949;48.726;9.102;2022-12-18T14:58:53;-2.80;99.90
15698;DHT22;7949;48.726;9.102;2022-12-18T15:01:26;-2.90;99.90
15698;DHT22;7949;48.726;9.102;2022-12-18T15:03:54;-3.00;99.90
15698;DHT22;7949;48.726;9.102;2022-12-18T15:06:30;-3.10;99.90
15698;DHT22;7949;48.726;9.102;2022-12-18T15:08:58;-3.30;99.90
15698;DHT22;7949;48.726;9.102;2022-12-18T15:11:33;-3.20;99.90
15698;DHT22;7949;48.726;9.102;2022-12-18T15:14:22;-3.30;99.90
15698;DHT22;7949;48.726;9.102;2022-12-18T15:16:51;-3.40;99.90
15698;DHT22;7949;48.726;9.102;2022-12-18T15:19:19;-3.50;99.90
15698;DHT22;7949;48.726;9.102;2022-12-18T15:21:48;-3.40;99.90
15698;DHT22;7949;48.726;9.102;2022-12-18T15:24:18;-3.60;99.90
15698;DHT22;7949;48.726;9.102;2022-12-18T15:26:47;-3.50;99.90
15698;DHT22;7949;48.726;9.102;2022-12-18T15:29:20;-3.60;99.90
15698;DHT22;7949;48.726;9.102;2022-12-18T15:31:58;-3.70;99.90
15698;DHT22;7949;48.726;9.102;2022-12-18T15:34:26;-3.70;99.90
15698;DHT22;7949;48.726;9.102;2022-12-18T15:36:55;-3.70;99.90
15698;DHT22;7949;48.726;9.102;2022-12-18T15:39:22;-3.80;99.90
15698;DHT22;7949;48.726;9.102;2022-12-18T15:41:48;-3.90;99.90
15698;DHT22;7949;48.726;9.102;2022-12-18T15:44:33;-3.90;99.90
15698;DHT22;7949;48.726;9.102;2022-12-18T15:47:00;-4.00;99.90
15698;DHT22;7949;48.726;9.102;2022-12-18T15:49:27;-4.00;99.90
15698;DHT22;7949;48.726;9.102;2022-12-18T15:51:57;-4.10;99.90
15698;DHT22;7949;48.726;9.102;2022-12-18T15:54:24;-4.20;99.90
15698;DHT22;7949;48.726;9.102;2022-12-18T15:57:07;-4.20;99.90
15698;DHT22;7949;48.726;9.102;2022-12-18T15:59:49;-4.20;99.90
15698;DHT22;7949;48.726;9.102;2022-12-18T16:02:18;-4.40;99.90
15698;DHT22;7949;48.726;9.102;2022-12-18T16:04:45;-4.30;99.90
15698;DHT22;7949;48.726;9.102;2022-12-18T16:07:13;-4.30;99.90
15698;DHT22;7949;48.726;9.102;2022-12-18T16:09:40;-4.30;99.90